sensor_id;sensor_type;location;lat;lon;timestamp;P1;durP1;ratioP1;P2;durP2;ratioP2
39958;SDS011;25639;53.634;9.880;2024-03-23T00:54:55;40.72;;;5.60;;
39958;SDS011;25639;53.634;9.880;2024-03-23T00:57:20;37.25;;;5.10;;
39958;SDS011;25639;53.634;9.880;2024-03-23T00:59:46;39.13;;;5.07;;
39958;SDS011;25639;53.634;9.880;2024-03-23T01:02:11;41.95;;;4.80;;
39958;SDS011;25639;53.634;9.880;2024-03-23T01:04:36;36.03;;;5.18;;
39958;SDS011;25639;53.634;9.880;2024-03-23T01:07:01;38.70;;;5.18;;
39958;SDS011;25639;53.634;9.880;2024-03-23T01:09:27;32.50;;;4.22;;
39958;SDS011;25639;53.634;9.880;2024-03-23T01:11:52;42.72;;;6.18;;
39958;SDS011;25639;53.634;9.880;2024-03-23T01:14:17;27.20;;;4.35;;
39958;SDS011;25639;53.634;9.880;2024-03-23T01:16:42;36.15;;;5.25;;
39958;SDS011;25639;53.634;9.880;2024-03-23T01:19:08;37.72;;;5.32;;
39958;SDS011;25639;53.634;9.880;2024-03-23T01:21:33;33.28;;;5.05;;
39958;SDS011;25639;53.634;9.880;2024-03-23T01:23:58;34.72;;;4.57;;
39958;SDS011;25639;53.634;9.880;2024-03-23T01:26:24;26.38;;;4.15;;
39958;SDS011;25639;53.634;9.880;2024-03-23T01:28:49;36.25;;;5.50;;
39958;SDS011;25639;53.634;9.880;2024-03-23T01:31:14;28.98;;;4.53;;
39958;SDS011;25639;53.634;9.880;2024-03-23T01:33:41;29.70;;;5.18;;
39958;SDS011;25639;53.634;9.880;2024-03-23T01:36:06;24.90;;;4.70;;
39958;SDS011;25639;53.634;9.880;2024-03-23T01:38:31;34.95;;;4.53;;
39958;SDS011;25639;53.634;9.880;2024-03-23T01:40:57;25.27;;;5.18;;
39958;SDS011;25639;53.634;9.880;2024-03-23T01:43:22;40.05;;;6.22;;
39958;SDS011;25639;53.634;9.880;2024-03-23T01:45:48;28.88;;;5.50;;
39958;SDS011;25639;53.634;9.880;2024-03-23T01:48:13;41.92;;;4.40;;
39958;SDS011;25639;53.634;9.880;2024-03-23T01:50:38;44.10;;;4.18;;
39958;SDS011;25639;53.634;9.880;2024-03-23T01:53:04;37.17;;;4.68;;
39958;SDS011;25639;53.634;9.880;2024-03-23T01:55:31;39.60;;;5.25;;
39958;SDS011;25639;53.634;9.880;2024-03-23T01:57:57;37.85;;;5.18;;
39958;SDS011;25639;53.634;9.880;2024-03-23T02:00:23;35.42;;;5.05;;
39958;SDS011;25639;53.634;9.880;2024-03-23T02:02:48;35.65;;;5.20;;
39958;SDS011;25639;53.634;9.880;2024-03-23T02:05:14;32.90;;;4.03;;
39958;SDS011;25639;53.634;9.880;2024-03-23T02:07:39;29.00;;;4.40;;
39958;SDS011;25639;53.634;9.880;2024-03-23T02:10:09;34.58;;;5.40;;
39958;SDS011;25639;53.634;9.880;2024-03-23T02:12:37;35.92;;;4.05;;
39958;SDS011;25639;53.634;9.880;2024-03-23T02:15:03;34.78;;;4.63;;
39958;SDS011;25639;53.634;9.880;2024-03-23T02:17:29;40.30;;;5.03;;
39958;SDS011;25639;53.634;9.880;2024-03-23T02:19:56;35.65;;;4.97;;
39958;SDS011;25639;53.634;9.880;2024-03-23T02:22:21;28.58;;;4.38;;
39958;SDS011;25639;53.634;9.880;2024-03-23T02:24:46;33.17;;;4.60;;
39958;SDS011;25639;53.634;9.880;2024-03-23T02:27:11;24.80;;;4.60;;
39958;SDS011;25639;53.634;9.880;2024-03-23T02:29:37;26.17;;;5.65;;
39958;SDS011;25639;53.634;9.880;2024-03-23T02:32:02;37.90;;;5.00;;
39958;SDS011;25639;53.634;9.880;2024-03-23T02:34:28;23.73;;;4.43;;
39958;SDS011;25639;53.634;9.880;2024-03-23T02:36:53;34.00;;;5.15;;
39958;SDS011;25639;53.634;9.880;2024-03-23T02:39:18;45.40;;;5.20;;
39958;SDS011;25639;53.634;9.880;2024-03-23T02:41:44;32.75;;;6.03;;
39958;SDS011;25639;53.634;9.880;2024-03-23T02:44:09;29.23;;;3.97;;
39958;SDS011;25639;53.634;9.880;2024-03-23T02:46:36;33.63;;;4.43;;
39958;SDS011;25639;53.634;9.880;2024-03-23T02:49:02;26.65;;;4.43;;
39958;SDS011;25639;53.634;9.880;2024-03-23T02:51:29;33.95;;;5.40;;
39958;SDS011;25639;53.634;9.880;2024-03-23T02:53:54;29.50;;;5.63;;
39958;SDS011;25639;53.634;9.880;2024-03-23T02:56:20;37.67;;;5.00;;
39958;SDS011;25639;53.634;9.880;2024-03-23T02:58:45;30.63;;;4.85;;
39958;SDS011;25639;53.634;9.880;2024-03-23T03:01:10;34.10;;;4.50;;
39958;SDS011;25639;53.634;9.880;2024-03-23T03:03:35;31.77;;;4.63;;
39958;SDS011;25639;53.634;9.880;2024-03-23T03:06:01;41.97;;;4.68;;
39958;SDS011;25639;53.634;9.880;2024-03-23T03:08:26;35.88;;;5.70;;
39958;SDS011;25639;53.634;9.880;2024-03-23T03:10:51;43.65;;;4.47;;
39958;SDS011;25639;53.634;9.880;2024-03-23T03:13:16;36.05;;;5.03;;
39958;SDS011;25639;53.634;9.880;2024-03-23T03:15:45;28.00;;;5.25;;
39958;SDS011;25639;53.634;9.880;2024-03-23T03:18:10;31.88;;;4.82;;
39958;SDS011;25639;53.634;9.880;2024-03-23T03:20:39;40.28;;;4.50;;
39958;SDS011;25639;53.634;9.880;2024-03-23T03:23:05;27.08;;;4.82;;
39958;SDS011;25639;53.634;9.880;2024-03-23T03:25:31;35.25;;;4.75;;
39958;SDS011;25639;53.634;9.880;2024-03-23T03:27:57;27.55;;;4.57;;
39958;SDS011;25639;53.634;9.880;2024-03-23T03:30:22;42.72;;;5.38;;
39958;SDS011;25639;53.634;9.880;2024-03-23T03:32:47;43.58;;;5.93;;
39958;SDS011;25639;53.634;9.880;2024-03-23T03:35:12;36.45;;;4.65;;
39958;SDS011;25639;53.634;9.880;2024-03-23T03:37:38;40.95;;;4.63;;
39958;SDS011;25639;53.634;9.880;2024-03-23T03:40:03;30.17;;;5.20;;
39958;SDS011;25639;53.634;9.880;2024-03-23T03:42:28;37.63;;;4.80;;
39958;SDS011;25639;53.634;9.880;2024-03-23T03:44:54;37.67;;;5.00;;
39958;SDS011;25639;53.634;9.880;2024-03-23T03:47:19;23.13;;;3.95;;
39958;SDS011;25639;53.634;9.880;2024-03-23T03:49:44;27.80;;;3.83;;
39958;SDS011;25639;53.634;9.880;2024-03-23T03:52:10;34.97;;;4.65;;
39958;SDS011;25639;53.634;9.880;2024-03-23T03:54:35;31.85;;;4.80;;
39958;SDS011;25639;53.634;9.880;2024-03-23T03:57:00;36.22;;;4.32;;
39958;SDS011;25639;53.634;9.880;2024-03-23T03:59:26;37.97;;;4.50;;
39958;SDS011;25639;53.634;9.880;2024-03-23T04:01:51;32.58;;;4.88;;
39958;SDS011;25639;53.634;9.880;2024-03-23T04:04:16;32.65;;;5.00;;
39958;SDS011;25639;53.634;9.880;2024-03-23T04:06:43;31.27;;;4.60;;
39958;SDS011;25639;53.634;9.880;2024-03-23T04:09:08;27.48;;;4.38;;
39958;SDS011;25639;53.634;9.880;2024-03-23T04:11:34;33.72;;;4.60;;
39958;SDS011;25639;53.634;9.880;2024-03-23T04:13:59;18.80;;;3.92;;
39958;SDS011;25639;53.634;9.880;2024-03-23T04:16:26;32.78;;;5.72;;
39958;SDS011;25639;53.634;9.880;2024-03-23T04:18:54;29.83;;;4.35;;
39958;SDS011;25639;53.634;9.880;2024-03-23T04:21:20;33.47;;;4.70;;
39958;SDS011;25639;53.634;9.880;2024-03-23T04:23:46;30.65;;;3.72;;
39958;SDS011;25639;53.634;9.880;2024-03-23T04:26:12;28.25;;;4.70;;
39958;SDS011;25639;53.634;9.880;2024-03-23T04:28:37;34.80;;;4.60;;
39958;SDS011;25639;53.634;9.880;2024-03-23T04:31:05;30.30;;;4.97;;
39958;SDS011;25639;53.634;9.880;2024-03-23T04:33:31;29.38;;;4.25;;
39958;SDS011;25639;53.634;9.880;2024-03-23T04:35:56;36.70;;;4.93;;
39958;SDS011;25639;53.634;9.880;2024-03-23T04:38:22;27.25;;;4.38;;
39958;SDS011;25639;53.634;9.880;2024-03-23T04:40:53;43.25;;;4.68;;
39958;SDS011;25639;53.634;9.880;2024-03-23T04:43:23;32.22;;;3.92;;
39958;SDS011;25639;53.634;9.880;2024-03-23T04:45:48;32.47;;;4.13;;
39958;SDS011;25639;53.634;9.880;2024-03-23T04:48:14;32.97;;;5.03;;
39958;SDS011;25639;53.634;9.880;2024-03-23T04:50:39;31.73;;;4.88;;
39958;SDS011;25639;53.634;9.880;2024-03-23T04:53:05;38.78;;;4.32;;
39958;SDS011;25639;53.634;9.880;2024-03-23T04:55:30;34.15;;;4.72;;
39958;SDS011;25639;53.634;9.880;2024-03-23T04:57:56;37.58;;;5.28;;
39958;SDS011;25639;53.634;9.880;2024-03-23T05:00:21;45.72;;;4.53;;
39958;SDS011;25639;53.634;9.880;2024-03-23T05:02:48;33.40;;;4.40;;
39958;SDS011;25639;53.634;9.880;2024-03-23T05:05:13;31.33;;;4.45;;
39958;SDS011;25639;53.634;9.880;2024-03-23T05:07:39;33.08;;;4.72;;
39958;SDS011;25639;53.634;9.880;2024-03-23T05:10:04;40.80;;;5.40;;
39958;SDS011;25639;53.634;9.880;2024-03-23T05:12:30;34.95;;;4.80;;
39958;SDS011;25639;53.634;9.880;2024-03-23T05:14:55;43.47;;;4.82;;
39958;SDS011;25639;53.634;9.880;2024-03-23T05:17:20;28.52;;;4.60;;
39958;SDS011;25639;53.634;9.880;2024-03-23T05:19:45;32.75;;;5.13;;
39958;SDS011;25639;53.634;9.880;2024-03-23T05:22:11;42.03;;;4.60;;
39958;SDS011;25639;53.634;9.880;2024-03-23T05:24:36;32.60;;;4.85;;
39958;SDS011;25639;53.634;9.880;2024-03-23T05:27:01;32.85;;;4.47;;
39958;SDS011;25639;53.634;9.880;2024-03-23T05:29:27;26.90;;;4.43;;
39958;SDS011;25639;53.634;9.880;2024-03-23T05:31:52;43.88;;;4.97;;
39958;SDS011;25639;53.634;9.880;2024-03-23T05:34:17;27.65;;;4.22;;
39958;SDS011;25639;53.634;9.880;2024-03-23T05:36:43;32.33;;;4.68;;
39958;SDS011;25639;53.634;9.880;2024-03-23T05:39:08;27.85;;;4.63;;
39958;SDS011;25639;53.634;9.880;2024-03-23T05:41:33;42.65;;;5.60;;
39958;SDS011;25639;53.634;9.880;2024-03-23T05:44:01;44.75;;;5.25;;
39958;SDS011;25639;53.634;9.880;2024-03-23T05:46:26;35.83;;;4.78;;
39958;SDS011;25639;53.634;9.880;2024-03-23T05:48:52;29.45;;;4.70;;
39958;SDS011;25639;53.634;9.880;2024-03-23T05:51:17;35.00;;;4.47;;
39958;SDS011;25639;53.634;9.880;2024-03-23T05:53:43;28.80;;;4.28;;
39958;SDS011;25639;53.634;9.880;2024-03-23T05:56:08;33.90;;;4.32;;
39958;SDS011;25639;53.634;9.880;2024-03-23T05:58:34;35.78;;;4.93;;
39958;SDS011;25639;53.634;9.880;2024-03-23T06:01:02;34.42;;;4.57;;
39958;SDS011;25639;53.634;9.880;2024-03-23T06:03:28;29.02;;;4.88;;
39958;SDS011;25639;53.634;9.880;2024-03-23T06:05:54;29.83;;;4.75;;
39958;SDS011;25639;53.634;9.880;2024-03-23T06:08:20;32.10;;;4.75;;
39958;SDS011;25639;53.634;9.880;2024-03-23T06:10:48;28.85;;;4.60;;
39958;SDS011;25639;53.634;9.880;2024-03-23T06:13:15;30.40;;;4.10;;
39958;SDS011;25639;53.634;9.880;2024-03-23T06:15:40;28.83;;;3.78;;
39958;SDS011;25639;53.634;9.880;2024-03-23T06:18:05;32.90;;;4.30;;
39958;SDS011;25639;53.634;9.880;2024-03-23T06:20:32;47.45;;;5.43;;
39958;SDS011;25639;53.634;9.880;2024-03-23T06:22:58;26.98;;;5.00;;
39958;SDS011;25639;53.634;9.880;2024-03-23T06:25:23;30.88;;;4.13;;
39958;SDS011;25639;53.634;9.880;2024-03-23T06:27:48;32.53;;;4.10;;
39958;SDS011;25639;53.634;9.880;2024-03-23T06:30:13;27.00;;;4.63;;
39958;SDS011;25639;53.634;9.880;2024-03-23T06:32:39;36.88;;;4.75;;
39958;SDS011;25639;53.634;9.880;2024-03-23T06:35:04;22.45;;;4.47;;
39958;SDS011;25639;53.634;9.880;2024-03-23T06:37:33;26.50;;;4.15;;
39958;SDS011;25639;53.634;9.880;2024-03-23T06:40:02;31.23;;;4.20;;
39958;SDS011;25639;53.634;9.880;2024-03-23T06:42:29;33.42;;;4.47;;
39958;SDS011;25639;53.634;9.880;2024-03-23T06:44:55;23.30;;;3.60;;
39958;SDS011;25639;53.634;9.880;2024-03-23T06:47:20;44.63;;;4.95;;
39958;SDS011;25639;53.634;9.880;2024-03-23T06:49:45;34.25;;;4.20;;
39958;SDS011;25639;53.634;9.880;2024-03-23T06:52:10;30.33;;;4.53;;
39958;SDS011;25639;53.634;9.880;2024-03-23T06:54:36;28.98;;;3.83;;
39958;SDS011;25639;53.634;9.880;2024-03-23T06:57:01;26.73;;;5.18;;
39958;SDS011;25639;53.634;9.880;2024-03-23T06:59:26;34.30;;;5.60;;
39958;SDS011;25639;53.634;9.880;2024-03-23T07:01:52;27.42;;;4.40;;
39958;SDS011;25639;53.634;9.880;2024-03-23T07:04:17;25.75;;;4.38;;
39958;SDS011;25639;53.634;9.880;2024-03-23T07:06:43;37.53;;;4.93;;
39958;SDS011;25639;53.634;9.880;2024-03-23T07:09:09;26.23;;;4.53;;
39958;SDS011;25639;53.634;9.880;2024-03-23T07:11:35;25.35;;;5.40;;
39958;SDS011;25639;53.634;9.880;2024-03-23T07:14:01;35.53;;;4.55;;
39958;SDS011;25639;53.634;9.880;2024-03-23T07:16:27;26.25;;;4.72;;
39958;SDS011;25639;53.634;9.880;2024-03-23T07:18:53;29.27;;;4.60;;
39958;SDS011;25639;53.634;9.880;2024-03-23T07:21:18;24.27;;;4.57;;
39958;SDS011;25639;53.634;9.880;2024-03-23T07:23:43;28.90;;;4.10;;
39958;SDS011;25639;53.634;9.880;2024-03-23T07:26:12;27.77;;;4.80;;
39958;SDS011;25639;53.634;9.880;2024-03-23T07:28:37;28.38;;;4.00;;
39958;SDS011;25639;53.634;9.880;2024-03-23T07:31:03;27.98;;;4.70;;
39958;SDS011;25639;53.634;9.880;2024-03-23T07:33:42;25.65;;;4.15;;
39958;SDS011;25639;53.634;9.880;2024-03-23T07:36:09;23.10;;;4.15;;
39958;SDS011;25639;53.634;9.880;2024-03-23T07:38:35;27.45;;;4.95;;
39958;SDS011;25639;53.634;9.880;2024-03-23T07:41:10;25.77;;;5.03;;
39958;SDS011;25639;53.634;9.880;2024-03-23T07:43:43;22.63;;;3.80;;
39958;SDS011;25639;53.634;9.880;2024-03-23T07:46:09;25.35;;;5.05;;
39958;SDS011;25639;53.634;9.880;2024-03-23T07:48:34;24.75;;;4.53;;
39958;SDS011;25639;53.634;9.880;2024-03-23T07:51:03;27.60;;;4.63;;
39958;SDS011;25639;53.634;9.880;2024-03-23T07:53:31;20.38;;;4.95;;
39958;SDS011;25639;53.634;9.880;2024-03-23T07:55:57;24.10;;;4.68;;
39958;SDS011;25639;53.634;9.880;2024-03-23T07:58:27;34.42;;;4.00;;
39958;SDS011;25639;53.634;9.880;2024-03-23T08:00:54;26.33;;;4.47;;
39958;SDS011;25639;53.634;9.880;2024-03-23T08:03:20;20.98;;;4.05;;
39958;SDS011;25639;53.634;9.880;2024-03-23T08:05:45;19.60;;;3.90;;
39958;SDS011;25639;53.634;9.880;2024-03-23T08:08:11;22.30;;;4.22;;
39958;SDS011;25639;53.634;9.880;2024-03-23T08:10:57;24.58;;;3.70;;
39958;SDS011;25639;53.634;9.880;2024-03-23T08:13:22;23.45;;;4.13;;
39958;SDS011;25639;53.634;9.880;2024-03-23T08:15:47;27.33;;;4.60;;
39958;SDS011;25639;53.634;9.880;2024-03-23T08:18:12;25.13;;;4.22;;
39958;SDS011;25639;53.634;9.880;2024-03-23T08:20:38;22.40;;;3.63;;
39958;SDS011;25639;53.634;9.880;2024-03-23T08:23:07;22.70;;;4.10;;
39958;SDS011;25639;53.634;9.880;2024-03-23T08:25:33;26.70;;;3.55;;
39958;SDS011;25639;53.634;9.880;2024-03-23T08:27:58;24.15;;;5.68;;
39958;SDS011;25639;53.634;9.880;2024-03-23T08:30:24;24.83;;;3.92;;
39958;SDS011;25639;53.634;9.880;2024-03-23T08:32:49;24.95;;;4.40;;
39958;SDS011;25639;53.634;9.880;2024-03-23T08:35:14;30.55;;;4.55;;
39958;SDS011;25639;53.634;9.880;2024-03-23T08:37:40;23.45;;;3.78;;
39958;SDS011;25639;53.634;9.880;2024-03-23T08:40:05;28.05;;;4.35;;
39958;SDS011;25639;53.634;9.880;2024-03-23T08:42:31;23.23;;;3.92;;
39958;SDS011;25639;53.634;9.880;2024-03-23T08:44:56;27.20;;;4.45;;
39958;SDS011;25639;53.634;9.880;2024-03-23T08:47:22;27.65;;;4.65;;
39958;SDS011;25639;53.634;9.880;2024-03-23T08:49:47;27.33;;;3.75;;
39958;SDS011;25639;53.634;9.880;2024-03-23T08:52:12;19.67;;;3.60;;
39958;SDS011;25639;53.634;9.880;2024-03-23T08:54:37;18.83;;;3.60;;
39958;SDS011;25639;53.634;9.880;2024-03-23T08:57:03;17.80;;;3.17;;
39958;SDS011;25639;53.634;9.880;2024-03-23T08:59:28;19.85;;;3.50;;
39958;SDS011;25639;53.634;9.880;2024-03-23T09:01:53;20.27;;;3.92;;
39958;SDS011;25639;53.634;9.880;2024-03-23T09:04:19;17.42;;;3.67;;
39958;SDS011;25639;53.634;9.880;2024-03-23T09:06:44;28.27;;;3.50;;
39958;SDS011;25639;53.634;9.880;2024-03-23T09:09:10;19.08;;;3.10;;
39958;SDS011;25639;53.634;9.880;2024-03-23T09:11:35;21.67;;;3.67;;
39958;SDS011;25639;53.634;9.880;2024-03-23T09:14:00;20.17;;;3.97;;
39958;SDS011;25639;53.634;9.880;2024-03-23T09:16:26;21.77;;;3.92;;
39958;SDS011;25639;53.634;9.880;2024-03-23T09:18:51;26.83;;;4.03;;
39958;SDS011;25639;53.634;9.880;2024-03-23T09:21:17;23.30;;;3.28;;
39958;SDS011;25639;53.634;9.880;2024-03-23T09:23:43;19.77;;;3.63;;
39958;SDS011;25639;53.634;9.880;2024-03-23T09:26:09;17.52;;;3.30;;
39958;SDS011;25639;53.634;9.880;2024-03-23T09:28:34;17.90;;;2.85;;
39958;SDS011;25639;53.634;9.880;2024-03-23T09:31:06;17.27;;;3.40;;
39958;SDS011;25639;53.634;9.880;2024-03-23T09:33:33;20.48;;;2.78;;
39958;SDS011;25639;53.634;9.880;2024-03-23T09:36:04;13.88;;;2.85;;
39958;SDS011;25639;53.634;9.880;2024-03-23T09:38:30;18.08;;;3.25;;
39958;SDS011;25639;53.634;9.880;2024-03-23T09:40:56;17.77;;;3.38;;
39958;SDS011;25639;53.634;9.880;2024-03-23T09:43:22;23.33;;;3.90;;
39958;SDS011;25639;53.634;9.880;2024-03-23T09:45:47;21.13;;;3.30;;
39958;SDS011;25639;53.634;9.880;2024-03-23T09:48:14;17.77;;;2.78;;
39958;SDS011;25639;53.634;9.880;2024-03-23T09:50:41;13.68;;;2.70;;
39958;SDS011;25639;53.634;9.880;2024-03-23T09:53:08;19.55;;;3.55;;
39958;SDS011;25639;53.634;9.880;2024-03-23T09:55:34;15.32;;;3.42;;
39958;SDS011;25639;53.634;9.880;2024-03-23T09:58:01;13.27;;;2.55;;
39958;SDS011;25639;53.634;9.880;2024-03-23T10:00:26;20.25;;;3.13;;
39958;SDS011;25639;53.634;9.880;2024-03-23T10:02:54;18.73;;;3.38;;
39958;SDS011;25639;53.634;9.880;2024-03-23T10:05:20;23.40;;;3.20;;
39958;SDS011;25639;53.634;9.880;2024-03-23T10:07:49;19.63;;;3.47;;
39958;SDS011;25639;53.634;9.880;2024-03-23T10:10:15;18.80;;;3.50;;
39958;SDS011;25639;53.634;9.880;2024-03-23T10:12:45;14.13;;;2.85;;
39958;SDS011;25639;53.634;9.880;2024-03-23T10:15:18;22.25;;;3.58;;
39958;SDS011;25639;53.634;9.880;2024-03-23T10:17:48;19.50;;;4.15;;
39958;SDS011;25639;53.634;9.880;2024-03-23T10:20:18;14.60;;;2.63;;
39958;SDS011;25639;53.634;9.880;2024-03-23T10:22:45;16.83;;;2.83;;
39958;SDS011;25639;53.634;9.880;2024-03-23T10:25:11;15.32;;;2.38;;
39958;SDS011;25639;53.634;9.880;2024-03-23T10:27:37;15.63;;;1.83;;
39958;SDS011;25639;53.634;9.880;2024-03-23T10:30:12;13.35;;;2.20;;
39958;SDS011;25639;53.634;9.880;2024-03-23T10:32:41;14.52;;;2.22;;
39958;SDS011;25639;53.634;9.880;2024-03-23T10:35:19;11.63;;;1.65;;
39958;SDS011;25639;53.634;9.880;2024-03-23T10:37:48;10.32;;;2.22;;
39958;SDS011;25639;53.634;9.880;2024-03-23T10:40:16;11.95;;;2.15;;
39958;SDS011;25639;53.634;9.880;2024-03-23T10:42:43;15.93;;;2.28;;
39958;SDS011;25639;53.634;9.880;2024-03-23T10:45:09;14.25;;;2.50;;
39958;SDS011;25639;53.634;9.880;2024-03-23T10:47:35;15.23;;;1.95;;
39958;SDS011;25639;53.634;9.880;2024-03-23T10:50:03;11.70;;;2.13;;
39958;SDS011;25639;53.634;9.880;2024-03-23T10:52:30;11.18;;;1.50;;
39958;SDS011;25639;53.634;9.880;2024-03-23T10:54:55;8.93;;;1.95;;
39958;SDS011;25639;53.634;9.880;2024-03-23T10:57:23;10.45;;;1.98;;
39958;SDS011;25639;53.634;9.880;2024-03-23T10:59:54;12.48;;;2.15;;
39958;SDS011;25639;53.634;9.880;2024-03-23T11:02:21;12.07;;;1.85;;
39958;SDS011;25639;53.634;9.880;2024-03-23T11:04:47;14.32;;;1.30;;
39958;SDS011;25639;53.634;9.880;2024-03-23T11:09:56;13.48;;;2.45;;
39958;SDS011;25639;53.634;9.880;2024-03-23T11:17:26;12.52;;;2.20;;
39958;SDS011;25639;53.634;9.880;2024-03-23T11:22:40;11.68;;;2.22;;
39958;SDS011;25639;53.634;9.880;2024-03-23T11:25:20;11.95;;;1.90;;
39958;SDS011;25639;53.634;9.880;2024-03-23T11:27:50;11.25;;;1.67;;
39958;SDS011;25639;53.634;9.880;2024-03-23T11:30:17;8.38;;;1.85;;
39958;SDS011;25639;53.634;9.880;2024-03-23T11:32:47;7.43;;;1.42;;
39958;SDS011;25639;53.634;9.880;2024-03-23T11:35:33;16.23;;;2.28;;
39958;SDS011;25639;53.634;9.880;2024-03-23T11:38:07;15.00;;;2.30;;
39958;SDS011;25639;53.634;9.880;2024-03-23T11:40:48;14.77;;;2.40;;
39958;SDS011;25639;53.634;9.880;2024-03-23T11:43:15;10.30;;;2.38;;
39958;SDS011;25639;53.634;9.880;2024-03-23T11:45:48;8.68;;;2.03;;
39958;SDS011;25639;53.634;9.880;2024-03-23T11:48:18;16.98;;;2.45;;
39958;SDS011;25639;53.634;9.880;2024-03-23T11:50:46;8.18;;;1.42;;
39958;SDS011;25639;53.634;9.880;2024-03-23T11:53:19;5.28;;;1.20;;
39958;SDS011;25639;53.634;9.880;2024-03-23T11:58:19;5.70;;;1.23;;
39958;SDS011;25639;53.634;9.880;2024-03-23T12:03:25;4.47;;;0.98;;
39958;SDS011;25639;53.634;9.880;2024-03-23T12:05:53;4.78;;;0.80;;
39958;SDS011;25639;53.634;9.880;2024-03-23T12:08:30;5.18;;;0.63;;
39958;SDS011;25639;53.634;9.880;2024-03-23T12:11:07;4.85;;;0.70;;
39958;SDS011;25639;53.634;9.880;2024-03-23T12:13:34;2.08;;;0.70;;
39958;SDS011;25639;53.634;9.880;2024-03-23T12:16:13;3.83;;;0.63;;
39958;SDS011;25639;53.634;9.880;2024-03-23T12:18:40;6.53;;;1.10;;
39958;SDS011;25639;53.634;9.880;2024-03-23T12:21:07;6.07;;;0.85;;
39958;SDS011;25639;53.634;9.880;2024-03-23T12:23:33;4.30;;;0.77;;
39958;SDS011;25639;53.634;9.880;2024-03-23T12:25:58;3.70;;;0.73;;
39958;SDS011;25639;53.634;9.880;2024-03-23T12:28:24;3.55;;;1.30;;
39958;SDS011;25639;53.634;9.880;2024-03-23T12:30:50;6.20;;;1.10;;
39958;SDS011;25639;53.634;9.880;2024-03-23T12:33:16;9.25;;;1.27;;
39958;SDS011;25639;53.634;9.880;2024-03-23T12:35:41;3.80;;;0.77;;
39958;SDS011;25639;53.634;9.880;2024-03-23T12:38:06;3.53;;;0.52;;
39958;SDS011;25639;53.634;9.880;2024-03-23T12:40:32;3.78;;;0.60;;
39958;SDS011;25639;53.634;9.880;2024-03-23T12:42:57;4.53;;;0.45;;
39958;SDS011;25639;53.634;9.880;2024-03-23T12:45:22;1.13;;;0.22;;
39958;SDS011;25639;53.634;9.880;2024-03-23T12:47:48;0.95;;;0.35;;
39958;SDS011;25639;53.634;9.880;2024-03-23T12:50:13;1.35;;;0.40;;
39958;SDS011;25639;53.634;9.880;2024-03-23T12:52:38;0.88;;;0.22;;
39958;SDS011;25639;53.634;9.880;2024-03-23T12:55:04;0.50;;;0.20;;
39958;SDS011;25639;53.634;9.880;2024-03-23T12:57:32;2.22;;;0.40;;
39958;SDS011;25639;53.634;9.880;2024-03-23T12:59:58;0.95;;;0.32;;
39958;SDS011;25639;53.634;9.880;2024-03-23T13:02:24;2.88;;;0.52;;
39958;SDS011;25639;53.634;9.880;2024-03-23T13:04:50;1.30;;;0.60;;
39958;SDS011;25639;53.634;9.880;2024-03-23T13:07:16;2.80;;;0.50;;
39958;SDS011;25639;53.634;9.880;2024-03-23T13:09:42;1.67;;;0.40;;
39958;SDS011;25639;53.634;9.880;2024-03-23T13:12:08;6.28;;;0.88;;
39958;SDS011;25639;53.634;9.880;2024-03-23T13:14:33;4.30;;;1.02;;
39958;SDS011;25639;53.634;9.880;2024-03-23T13:16:59;6.70;;;1.20;;
39958;SDS011;25639;53.634;9.880;2024-03-23T13:19:24;2.92;;;0.90;;
39958;SDS011;25639;53.634;9.880;2024-03-23T13:21:55;7.53;;;1.20;;
39958;SDS011;25639;53.634;9.880;2024-03-23T13:24:21;4.05;;;1.23;;
39958;SDS011;25639;53.634;9.880;2024-03-23T13:26:48;4.80;;;0.70;;
39958;SDS011;25639;53.634;9.880;2024-03-23T13:29:14;7.22;;;1.42;;
39958;SDS011;25639;53.634;9.880;2024-03-23T13:31:39;6.63;;;1.48;;
39958;SDS011;25639;53.634;9.880;2024-03-23T13:34:04;3.22;;;0.80;;
39958;SDS011;25639;53.634;9.880;2024-03-23T13:36:30;2.83;;;0.80;;
39958;SDS011;25639;53.634;9.880;2024-03-23T13:38:55;4.95;;;0.80;;
39958;SDS011;25639;53.634;9.880;2024-03-23T13:41:20;3.63;;;0.80;;
39958;SDS011;25639;53.634;9.880;2024-03-23T13:43:45;2.55;;;0.80;;
39958;SDS011;25639;53.634;9.880;2024-03-23T13:46:11;6.57;;;0.90;;
39958;SDS011;25639;53.634;9.880;2024-03-23T13:48:36;2.58;;;0.90;;
39958;SDS011;25639;53.634;9.880;2024-03-23T13:51:04;3.95;;;1.35;;
39958;SDS011;25639;53.634;9.880;2024-03-23T13:53:30;9.40;;;1.67;;
39958;SDS011;25639;53.634;9.880;2024-03-23T13:55:57;4.93;;;1.10;;
39958;SDS011;25639;53.634;9.880;2024-03-23T13:58:22;4.95;;;0.90;;
39958;SDS011;25639;53.634;9.880;2024-03-23T14:00:50;6.75;;;1.30;;
39958;SDS011;25639;53.634;9.880;2024-03-23T14:03:16;9.20;;;1.30;;
39958;SDS011;25639;53.634;9.880;2024-03-23T14:05:41;5.88;;;1.13;;
39958;SDS011;25639;53.634;9.880;2024-03-23T14:08:07;8.55;;;1.65;;
39958;SDS011;25639;53.634;9.880;2024-03-23T14:10:33;8.63;;;2.28;;
39958;SDS011;25639;53.634;9.880;2024-03-23T14:13:00;5.82;;;1.10;;
39958;SDS011;25639;53.634;9.880;2024-03-23T14:15:26;11.15;;;1.50;;
39958;SDS011;25639;53.634;9.880;2024-03-23T14:17:52;6.03;;;1.40;;
39958;SDS011;25639;53.634;9.880;2024-03-23T14:20:17;9.85;;;1.73;;
39958;SDS011;25639;53.634;9.880;2024-03-23T14:22:42;9.27;;;1.80;;
39958;SDS011;25639;53.634;9.880;2024-03-23T14:25:08;11.30;;;1.75;;
39958;SDS011;25639;53.634;9.880;2024-03-23T14:27:34;6.82;;;1.38;;
39958;SDS011;25639;53.634;9.880;2024-03-23T14:30:02;8.80;;;1.88;;
39958;SDS011;25639;53.634;9.880;2024-03-23T14:32:31;8.80;;;1.40;;
39958;SDS011;25639;53.634;9.880;2024-03-23T14:35:02;6.50;;;1.67;;
39958;SDS011;25639;53.634;9.880;2024-03-23T14:37:28;7.05;;;1.45;;
39958;SDS011;25639;53.634;9.880;2024-03-23T14:39:57;4.20;;;1.10;;
39958;SDS011;25639;53.634;9.880;2024-03-23T14:42:22;7.43;;;1.45;;
39958;SDS011;25639;53.634;9.880;2024-03-23T14:44:48;4.82;;;1.23;;
39958;SDS011;25639;53.634;9.880;2024-03-23T14:47:14;8.75;;;1.73;;
39958;SDS011;25639;53.634;9.880;2024-03-23T14:49:39;10.00;;;1.38;;
39958;SDS011;25639;53.634;9.880;2024-03-23T14:52:04;7.50;;;1.55;;
39958;SDS011;25639;53.634;9.880;2024-03-23T14:54:30;7.47;;;1.40;;
39958;SDS011;25639;53.634;9.880;2024-03-23T14:56:55;4.60;;;0.60;;
39958;SDS011;25639;53.634;9.880;2024-03-23T14:59:23;3.92;;;0.90;;
39958;SDS011;25639;53.634;9.880;2024-03-23T15:01:48;4.65;;;1.20;;
39958;SDS011;25639;53.634;9.880;2024-03-23T15:04:14;4.68;;;1.30;;
39958;SDS011;25639;53.634;9.880;2024-03-23T15:06:39;3.88;;;0.77;;
39958;SDS011;25639;53.634;9.880;2024-03-23T15:09:04;1.70;;;0.65;;
39958;SDS011;25639;53.634;9.880;2024-03-23T15:11:32;5.15;;;0.68;;
39958;SDS011;25639;53.634;9.880;2024-03-23T15:13:58;5.03;;;0.98;;
39958;SDS011;25639;53.634;9.880;2024-03-23T15:16:23;3.92;;;1.40;;
39958;SDS011;25639;53.634;9.880;2024-03-23T15:18:49;2.25;;;0.98;;
39958;SDS011;25639;53.634;9.880;2024-03-23T15:21:14;2.72;;;0.73;;
39958;SDS011;25639;53.634;9.880;2024-03-23T15:23:44;7.10;;;1.15;;
39958;SDS011;25639;53.634;9.880;2024-03-23T15:26:10;2.65;;;0.60;;
39958;SDS011;25639;53.634;9.880;2024-03-23T15:28:35;2.47;;;1.00;;
39958;SDS011;25639;53.634;9.880;2024-03-23T15:31:27;8.50;;;1.10;;
39958;SDS011;25639;53.634;9.880;2024-03-23T15:33:52;5.43;;;1.10;;
39958;SDS011;25639;53.634;9.880;2024-03-23T15:36:17;6.03;;;0.93;;
39958;SDS011;25639;53.634;9.880;2024-03-23T15:38:43;7.57;;;1.40;;
39958;SDS011;25639;53.634;9.880;2024-03-23T15:41:09;6.65;;;1.00;;
39958;SDS011;25639;53.634;9.880;2024-03-23T15:43:34;4.20;;;1.33;;